Time;durP1;ratioP1;P1;durP2;ratioP2;P2;SDS_P1;SDS_P2;PMS_P1;PMS_P2;Temp;Humidity;BMP_temperature;BMP_pressure;BME280_temperature;BME280_humidity;BME280_pressure;Samples;Min_cycle;Max_cycle;Signal;HPM_P1;HPM_P2
2023/10/10 00:01:38;;;;;;;18.93;6.13;;;;;;;;;;5049028;28;20511;-60
2023/10/10 00:04:05;;;;;;;12.77;4.60;;;;;;;;;;5048711;28;20131;-60
2023/10/10 00:06:34;;;;;;;12.87;5.03;;;;;;;;;;5049281;28;20518;-61
2023/10/10 00:09:00;;;;;;;12.83;5.10;;;;;;;;;;5048940;28;20048;-60
2023/10/10 00:11:26;;;;;;;11.57;4.83;;;;;;;;;;5049393;28;20099;-60
2023/10/10 00:14:05;;;;;;;9.67;4.40;;;;;;;;;;5048328;28;20044;-60
2023/10/10 00:16:38;;;;;;;9.87;4.90;;;;;;;;;;5048221;28;20076;-60
2023/10/10 00:19:21;;;;;;;;;;;;;;;;;;5049325;28;20045;-60
2023/10/10 00:21:48;;;;;;;13.50;5.20;;;;;;;;;;5049034;28;19921;-60
2023/10/10 00:24:14;;;;;;;9.37;4.23;;;;;;;;;;5055913;28;20055;-59
2023/10/10 00:26:44;;;;;;;12.30;5.30;;;;;;;;;;5068931;28;20135;-60
2023/10/10 00:29:11;;;;;;;12.47;5.33;;;;;;;;;;5068630;28;20105;-60
2023/10/10 00:31:38;;;;;;;11.33;6.07;;;;;;;;;;5068718;28;20040;-60
2023/10/10 00:34:07;;;;;;;13.40;5.33;;;;;;;;;;5068556;28;20049;-60
2023/10/10 00:36:35;;;;;;;11.57;5.83;;;;;;;;;;5067933;28;20052;-59
2023/10/10 00:41:50;;;;;;;11.97;6.20;;;;;;;;;;5068107;28;20091;-59
2023/10/10 00:44:17;;;;;;;15.10;7.25;;;;;;;;;;5068576;28;20051;-60
2023/10/10 00:46:47;;;;;;;9.67;6.30;;;;;;;;;;5068293;28;20048;-60
2023/10/10 00:49:17;;;;;;;14.93;6.57;;;;;;;;;;5071917;28;20395;-61
2023/10/10 00:51:47;;;;;;;13.90;6.60;;;;;;;;;;5072883;28;20126;-60
2023/10/10 00:54:26;;;;;;;12.03;6.13;;;;;;;;;;5072581;28;20091;-60
2023/10/10 00:56:56;;;;;;;13.50;6.67;;;;;;;;;;5057458;28;20049;-60
2023/10/10 00:59:45;;;;;;;12.90;8.23;;;;;;;;;;5051985;28;20136;-60
2023/10/10 01:02:10;;;;;;;13.00;7.27;;;;;;;;;;5052199;28;20389;-59
2023/10/10 01:04:48;;;;;;;21.97;7.37;;;;;;;;;;5052669;28;20057;-60
2023/10/10 01:07:18;;;;;;;18.43;7.20;;;;;;;;;;5052486;28;20564;-60
2023/10/10 01:09:55;;;;;;;12.90;7.07;;;;;;;;;;5052599;28;20045;-60
2023/10/10 01:12:28;;;;;;;12.97;7.23;;;;;;;;;;5051844;28;20041;-60
2023/10/10 01:14:54;;;;;;;;;;;;;;;;;;5070766;28;20052;-60
2023/10/10 01:17:25;;;;;;;11.90;6.60;;;;;;;;;;5056922;28;19921;-61
2023/10/10 01:19:51;;;;;;;14.50;7.23;;;;;;;;;;5051940;28;20419;-60
2023/10/10 01:22:37;;;;;;;17.30;7.60;;;;;;;;;;5051647;28;20045;-60
2023/10/10 01:25:14;;;;;;;14.47;6.87;;;;;;;;;;5051838;28;20049;-59
2023/10/10 01:27:43;;;;;;;16.27;7.23;;;;;;;;;;5051927;28;20091;-60
2023/10/10 01:30:18;;;;;;;12.87;6.77;;;;;;;;;;5051860;28;20598;-60
2023/10/10 01:32:50;;;;;;;16.40;7.17;;;;;;;;;;5051841;28;20132;-59
2023/10/10 01:35:16;;;;;;;12.03;7.10;;;;;;;;;;5060175;28;20109;-60
2023/10/10 01:37:48;;;;;;;11.33;7.57;;;;;;;;;;5071728;28;20080;-59
2023/10/10 01:40:17;;;;;;;15.27;7.43;;;;;;;;;;5071744;28;20048;-60
2023/10/10 01:42:53;;;;;;;14.90;7.60;;;;;;;;;;5071455;28;20129;-60
2023/10/10 01:45:20;;;;;;;16.27;7.27;;;;;;;;;;5071662;28;20094;-59
2023/10/10 01:50:31;;;;;;;16.30;6.70;;;;;;;;;;5071774;28;20040;-60
2023/10/10 01:52:58;;;;;;;15.43;6.90;;;;;;;;;;5070969;28;20114;-59
2023/10/10 01:55:24;;;;;;;13.47;7.80;;;;;;;;;;5070493;28;20036;-59
2023/10/10 01:57:57;;;;;;;10.13;6.90;;;;;;;;;;5071464;28;20519;-60
2023/10/10 02:00:26;;;;;;;10.18;7.05;;;;;;;;;;5070449;28;20054;-59
2023/10/10 02:02:53;;;;;;;16.67;6.83;;;;;;;;;;5065249;28;20072;-60
2023/10/10 02:05:55;;;;;;;14.63;7.20;;;;;;;;;;5051566;28;20092;-59
2023/10/10 02:08:16;;;;;;;20.17;7.40;;;;;;;;;;5049176;28;20139;-60
2023/10/10 02:10:46;;;;;;;12.07;6.50;;;;;;;;;;5051273;28;20053;-60
2023/10/10 02:13:14;;;;;;;12.27;6.33;;;;;;;;;;5051227;28;20045;-60
2023/10/10 02:15:40;;;;;;;13.63;6.73;;;;;;;;;;5051045;28;20091;-60
2023/10/10 02:18:12;;;;;;;12.30;6.30;;;;;;;;;;5051174;28;20477;-61
2023/10/10 02:23:31;;;;;;;16.30;6.60;;;;;;;;;;5050684;28;20047;-62
2023/10/10 02:26:02;;;;;;;;;;;;;;;;;;5051297;28;20048;-62
2023/10/10 02:28:43;;;;;;;15.23;7.10;;;;;;;;;;5050655;28;19925;-62
2023/10/10 02:31:10;;;;;;;10.60;7.33;;;;;;;;;;5050736;28;20060;-61
2023/10/10 02:33:37;;;;;;;16.37;8.60;;;;;;;;;;5050794;28;20099;-62
2023/10/10 02:36:07;;;;;;;17.77;9.10;;;;;;;;;;5068412;28;20048;-62
2023/10/10 02:38:56;;;;;;;16.23;9.10;;;;;;;;;;5070298;28;20048;-62
2023/10/10 02:41:38;;;;;;;17.17;11.13;;;;;;;;;;5070141;28;20048;-63
2023/10/10 02:44:09;;;;;;;17.00;10.17;;;;;;;;;;5070255;28;20048;-62
2023/10/10 02:46:40;;;;;;;15.73;10.20;;;;;;;;;;5070758;28;20045;-62
2023/10/10 02:49:29;;;;;;;24.80;11.93;;;;;;;;;;5070024;28;20048;-62
2023/10/10 02:51:56;;;;;;;21.00;11.27;;;;;;;;;;5070733;28;20055;-62
2023/10/10 02:56:57;;;;;;;26.43;12.90;;;;;;;;;;5052508;28;20564;-62
2023/10/10 02:59:37;;;;;;;26.30;12.43;;;;;;;;;;5050388;28;20041;-60
2023/10/10 03:02:18;;;;;;;22.93;11.00;;;;;;;;;;5050900;28;20570;-60
2023/10/10 03:07:29;;;;;;;20.23;11.63;;;;;;;;;;5051024;28;20056;-60
2023/10/10 03:12:43;;;;;;;20.93;11.93;;;;;;;;;;5050304;28;20557;-59
2023/10/10 03:15:27;;;;;;;19.57;11.53;;;;;;;;;;5050004;28;20049;-59
2023/10/10 03:21:05;;;;;;;21.77;12.63;;;;;;;;;;5050241;28;20087;-60
2023/10/10 03:23:32;;;;;;;19.77;12.30;;;;;;;;;;5049301;28;20510;-59
2023/10/10 03:26:05;;;;;;;25.77;12.37;;;;;;;;;;5049560;28;20139;-60
2023/10/10 03:28:40;;;;;;;20.83;12.17;;;;;;;;;;5049929;28;20056;-59
2023/10/10 03:33:44;;;;;;;21.93;12.70;;;;;;;;;;5049455;28;20056;-60
2023/10/10 05:23:29;;;;;;;26.73;14.37;;;;;;;;;;5049580;28;20106;-60
2023/10/10 05:25:51;;;;;;;53.70;27.67;;;;;;;;;;5047965;28;20049;-61
2023/10/10 05:28:18;;;;;;;57.47;28.03;;;;;;;;;;5049958;28;20045;-62
2023/10/10 05:30:45;;;;;;;58.50;27.93;;;;;;;;;;5051970;28;20045;-62
2023/10/10 05:33:12;;;;;;;61.20;28.80;;;;;;;;;;5048097;28;20060;-62
2023/10/10 05:35:39;;;;;;;58.83;29.70;;;;;;;;;;5050572;28;20068;-61
2023/10/10 05:38:07;;;;;;;56.70;28.87;;;;;;;;;;5051869;28;20053;-62
2023/10/10 05:40:33;;;;;;;63.33;29.27;;;;;;;;;;5051654;28;20499;-62
2023/10/10 05:43:02;;;;;;;62.07;29.50;;;;;;;;;;5053867;28;20083;-61
2023/10/10 05:45:29;;;;;;;64.90;30.60;;;;;;;;;;5051343;28;20473;-62
2023/10/10 05:47:55;;;;;;;63.40;31.23;;;;;;;;;;5051268;28;20041;-62
2023/10/10 05:50:22;;;;;;;61.47;30.87;;;;;;;;;;5051703;28;20128;-62
2023/10/10 05:52:48;;;;;;;64.70;31.10;;;;;;;;;;5058723;28;20052;-62
2023/10/10 05:55:15;;;;;;;66.03;30.83;;;;;;;;;;5071199;28;20052;-61
2023/10/10 05:57:41;;;;;;;58.57;30.57;;;;;;;;;;5070396;28;20052;-62
2023/10/10 06:00:13;;;;;;;63.73;31.07;;;;;;;;;;5071269;28;20048;-61
2023/10/10 06:02:41;;;;;;;72.07;32.87;;;;;;;;;;5060006;28;20419;-62
2023/10/10 06:05:09;;;;;;;62.27;32.20;;;;;;;;;;5056352;28;20457;-62
2023/10/10 06:07:37;;;;;;;67.30;33.33;;;;;;;;;;5071113;28;20174;-61
2023/10/10 06:10:06;;;;;;;74.53;32.90;;;;;;;;;;5070844;28;20049;-62
2023/10/10 06:12:36;;;;;;;71.13;34.67;;;;;;;;;;5062115;28;20055;-62
2023/10/10 06:15:05;;;;;;;74.00;35.17;;;;;;;;;;5054201;28;20375;-62
2023/10/10 06:17:34;;;;;;;73.13;35.47;;;;;;;;;;5071218;28;20066;-62
2023/10/10 06:20:06;;;;;;;77.87;36.27;;;;;;;;;;5070707;28;20047;-62
2023/10/10 06:22:32;;;;;;;71.13;34.93;;;;;;;;;;5069612;28;20032;-62
2023/10/10 06:24:58;;;;;;;69.10;34.03;;;;;;;;;;5070127;28;20040;-62
2023/10/10 06:27:28;;;;;;;79.27;36.20;;;;;;;;;;5070773;28;20436;-62
2023/10/10 06:30:01;;;;;;;74.10;35.40;;;;;;;;;;5055816;28;20155;-62
2023/10/10 06:32:30;;;;;;;70.93;34.33;;;;;;;;;;5058329;28;20033;-62
2023/10/10 06:35:52;;;;;;;65.67;33.57;;;;;;;;;;5068670;28;20397;-62
2023/10/10 06:37:43;;;;;;;66.50;32.50;;;;;;;;;;5065997;28;20048;-62
2023/10/10 06:40:10;;;;;;;61.00;31.33;;;;;;;;;;5070446;28;20202;-61
2023/10/10 06:42:36;;;;;;;55.93;30.07;;;;;;;;;;5066004;28;20502;-62
2023/10/10 06:45:21;;;;;;;55.10;30.70;;;;;;;;;;5053070;28;20115;-62
2023/10/10 06:47:50;;;;;;;65.47;33.27;;;;;;;;;;5050902;28;20054;-62
2023/10/10 06:50:21;;;;;;;59.50;32.03;;;;;;;;;;5050305;28;20111;-61
2023/10/10 06:52:52;;;;;;;64.63;32.87;;;;;;;;;;5057662;28;20133;-60
2023/10/10 06:55:22;;;;;;;59.50;32.60;;;;;;;;;;5049657;28;20140;-61
2023/10/10 06:58:12;;;;;;;65.03;33.57;;;;;;;;;;5049880;28;20045;-61
2023/10/10 07:03:07;;;;;;;62.30;34.70;;;;;;;;;;5052803;28;20474;-61
2023/10/10 07:05:33;;;;;;;59.57;34.47;;;;;;;;;;5050207;28;20044;-61
2023/10/10 07:08:01;;;;;;;66.37;34.93;;;;;;;;;;5050177;28;20041;-61
2023/10/10 07:10:34;;;;;;;66.47;37.47;;;;;;;;;;5049659;28;20045;-62
2023/10/10 07:13:00;;;;;;;75.55;40.85;;;;;;;;;;5049705;28;20124;-61
2023/10/10 07:15:26;;;;;;;77.13;41.20;;;;;;;;;;5050306;28;20079;-61
2023/10/10 07:18:08;;;;;;;79.07;38.83;;;;;;;;;;5061639;28;20045;-61
2023/10/10 07:23:22;;;;;;;79.60;41.23;;;;;;;;;;5049908;28;20103;-61
2023/10/10 07:26:18;;;;;;;76.20;42.13;;;;;;;;;;5050411;28;20059;-61
2023/10/10 07:28:49;;;;;;;80.00;41.43;;;;;;;;;;5059732;28;20196;-61
2023/10/10 07:31:19;;;;;;;71.23;40.43;;;;;;;;;;5060676;28;20037;-61
2023/10/10 07:33:55;;;;;;;76.97;39.97;;;;;;;;;;5066866;28;20037;-61
2023/10/10 07:36:24;;;;;;;73.57;40.30;;;;;;;;;;5068114;28;20205;-61
2023/10/10 07:38:54;;;;;;;79.63;43.37;;;;;;;;;;5066461;28;20106;-62
2023/10/10 07:41:21;;;;;;;81.80;43.50;;;;;;;;;;5067316;28;20499;-62
2023/10/10 07:43:49;;;;;;;78.77;42.77;;;;;;;;;;5069144;28;20217;-61
2023/10/10 07:46:22;;;;;;;84.57;46.60;;;;;;;;;;5068922;28;20048;-61
2023/10/10 07:48:54;;;;;;;83.30;46.45;;;;;;;;;;5051359;28;20049;-62
2023/10/10 07:51:28;;;;;;;85.60;47.90;;;;;;;;;;5065666;28;20388;-61
2023/10/10 07:54:02;;;;;;;86.90;46.53;;;;;;;;;;5062971;28;20044;-61
2023/10/10 07:56:32;;;;;;;87.40;48.17;;;;;;;;;;5065466;28;20525;-61
2023/10/10 07:58:58;;;;;;;83.27;46.60;;;;;;;;;;5066653;28;20083;-62
2023/10/10 08:01:24;;;;;;;89.93;49.00;;;;;;;;;;5068466;28;20076;-62
2023/10/10 08:03:50;;;;;;;83.80;48.53;;;;;;;;;;5062301;28;20045;-61
2023/10/10 08:06:24;;;;;;;85.40;49.70;;;;;;;;;;5052236;28;20707;-61
2023/10/10 08:11:38;;;;;;;75.33;45.83;;;;;;;;;;5052609;28;20044;-61
2023/10/10 08:14:08;;;;;;;70.63;44.07;;;;;;;;;;5066918;28;20585;-62
2023/10/10 08:16:35;;;;;;;70.87;45.00;;;;;;;;;;5055932;28;20044;-61
2023/10/10 08:19:04;;;;;;;65.63;41.63;;;;;;;;;;5051484;28;20101;-61
2023/10/10 08:21:36;;;;;;;68.67;43.40;;;;;;;;;;5068621;28;20079;-61
2023/10/10 08:24:02;;;;;;;69.57;43.73;;;;;;;;;;5068068;28;20037;-61
2023/10/10 08:26:29;;;;;;;72.57;45.70;;;;;;;;;;5067076;28;20044;-61
2023/10/10 08:28:55;;;;;;;68.30;42.80;;;;;;;;;;5066288;28;20048;-61
2023/10/10 08:31:22;;;;;;;70.83;41.90;;;;;;;;;;5057730;28;20098;-61
2023/10/10 08:33:49;;;;;;;63.97;41.10;;;;;;;;;;5057195;28;20131;-61
2023/10/10 08:36:29;;;;;;;59.83;41.20;;;;;;;;;;5060835;28;20473;-61
2023/10/10 08:39:00;;;;;;;59.33;40.43;;;;;;;;;;5067090;28;20060;-61
2023/10/10 08:41:27;;;;;;;65.53;41.93;;;;;;;;;;5063400;28;20141;-61
2023/10/10 08:43:57;;;;;;;59.93;40.60;;;;;;;;;;5068001;28;20041;-61
2023/10/10 08:46:26;;;;;;;60.40;40.83;;;;;;;;;;5066692;28;20048;-61
2023/10/10 08:48:52;;;;;;;52.50;38.17;;;;;;;;;;5066126;28;20802;-62
2023/10/10 08:51:18;;;;;;;54.43;37.60;;;;;;;;;;5067450;28;20068;-61
2023/10/10 08:53:44;;;;;;;53.53;35.57;;;;;;;;;;5066616;28;20064;-61
2023/10/10 08:56:14;;;;;;;49.57;34.77;;;;;;;;;;5053990;28;20095;-62
2023/10/10 08:58:41;;;;;;;48.43;33.47;;;;;;;;;;5051687;28;20041;-61
2023/10/10 09:01:08;;;;;;;48.20;34.13;;;;;;;;;;5068422;28;20053;-64
2023/10/10 09:03:34;;;;;;;44.60;33.03;;;;;;;;;;5066801;28;20098;-62
2023/10/10 09:06:13;;;;;;;48.57;34.33;;;;;;;;;;5067392;28;20055;-64
2023/10/10 09:08:43;;;;;;;42.40;31.97;;;;;;;;;;5068415;28;20079;-61
2023/10/10 09:11:11;;;;;;;47.00;33.03;;;;;;;;;;5070296;28;20052;-61
2023/10/10 09:14:00;;;;;;;46.10;32.10;;;;;;;;;;5061285;28;20078;-61
2023/10/10 09:16:44;;;;;;;46.57;32.10;;;;;;;;;;5069654;28;20084;-61
2023/10/10 09:19:10;;;;;;;42.50;30.50;;;;;;;;;;5068452;28;20129;-61
2023/10/10 09:21:46;;;;;;;42.97;30.07;;;;;;;;;;5071492;28;20145;-61
2023/10/10 09:24:27;;;;;;;43.37;31.83;;;;;;;;;;5061898;28;20386;-61
2023/10/10 09:26:56;;;;;;;41.40;29.40;;;;;;;;;;5061813;28;20052;-62
2023/10/10 09:29:34;;;;;;;39.90;28.23;;;;;;;;;;5071059;28;20189;-62
2023/10/10 09:32:01;;;;;;;44.37;29.43;;;;;;;;;;5070667;28;20526;-61
2023/10/10 09:34:35;;;;;;;45.27;28.37;;;;;;;;;;5071016;28;20387;-61
2023/10/10 09:37:07;;;;;;;48.57;29.57;;;;;;;;;;5056573;28;20513;-62
2023/10/10 09:39:36;;;;;;;40.93;29.27;;;;;;;;;;5067451;28;20721;-61
2023/10/10 09:42:21;;;;;;;38.80;28.70;;;;;;;;;;5066876;28;20053;-61
2023/10/10 09:47:52;;;;;;;42.03;27.60;;;;;;;;;;5067639;28;20051;-61
2023/10/10 09:52:58;;;;;;;37.80;28.80;;;;;;;;;;5069703;28;20133;-61
2023/10/10 09:58:00;;;;;;;36.00;26.87;;;;;;;;;;5070333;28;20103;-62
2023/10/10 10:00:31;;;;;;;41.03;27.53;;;;;;;;;;5066267;28;20040;-61
2023/10/10 10:03:00;;;;;;;30.73;24.50;;;;;;;;;;5068748;28;20422;-61
2023/10/10 10:05:28;;;;;;;35.73;27.10;;;;;;;;;;5065122;28;20122;-61
2023/10/10 10:08:06;;;;;;;35.30;26.13;;;;;;;;;;5067239;28;20044;-62
2023/10/10 10:10:52;;;;;;;37.47;27.63;;;;;;;;;;5068775;28;20056;-61
2023/10/10 10:13:40;;;;;;;37.63;27.00;;;;;;;;;;5060916;28;20048;-61
2023/10/10 10:16:25;;;;;;;38.90;28.63;;;;;;;;;;5069767;28;20098;-61
2023/10/10 10:19:11;;;;;;;40.93;27.43;;;;;;;;;;5070564;28;20048;-62
2023/10/10 10:21:52;;;;;;;35.83;24.37;;;;;;;;;;5065936;28;20040;-61
2023/10/10 10:24:44;;;;;;;34.63;24.97;;;;;;;;;;5055372;28;20044;-61
2023/10/10 10:30:07;;;;;;;35.20;26.50;;;;;;;;;;5068584;28;20048;-61
2023/10/10 10:32:35;;;;;;;37.63;24.30;;;;;;;;;;5058259;28;20106;-61
2023/10/10 10:35:02;;;;;;;32.60;23.93;;;;;;;;;;5059227;28;20049;-62
2023/10/10 10:37:29;;;;;;;33.07;24.50;;;;;;;;;;5069950;28;20430;-62
2023/10/10 10:40:41;;;;;;;35.23;24.27;;;;;;;;;;5066792;28;20549;-61
2023/10/10 10:42:53;;;;;;;41.60;24.38;;;;;;;;;;5062380;28;20080;-61
2023/10/10 10:45:25;;;;;;;31.67;22.87;;;;;;;;;;5058346;28;20040;-61
2023/10/10 10:47:59;;;;;;;31.80;22.73;;;;;;;;;;5069488;28;20048;-62
2023/10/10 10:50:29;;;;;;;35.77;22.77;;;;;;;;;;5069605;28;20044;-61
2023/10/10 10:53:05;;;;;;;30.97;22.33;;;;;;;;;;5066801;28;20510;-61
2023/10/10 10:55:31;;;;;;;32.30;22.37;;;;;;;;;;5070128;28;21150;-61
2023/10/10 11:03:33;;;;;;;30.43;21.37;;;;;;;;;;5065214;28;20729;-61
2023/10/10 11:06:10;;;;;;;29.47;20.50;;;;;;;;;;5070008;28;20056;-62
2023/10/10 11:11:27;;;;;;;28.73;21.30;;;;;;;;;;5067560;28;20060;-61
2023/10/10 11:16:47;;;;;;;32.30;22.60;;;;;;;;;;5069650;28;20056;-62
2023/10/10 11:22:00;;;;;;;26.73;19.15;;;;;;;;;;5047573;28;20051;-62
2023/10/10 11:24:36;;;;;;;24.67;18.00;;;;;;;;;;5049107;28;20049;-61
2023/10/10 11:32:25;;;;;;;24.55;19.25;;;;;;;;;;5048277;28;20422;-62
2023/10/10 11:34:55;;;;;;;29.67;18.65;;;;;;;;;;5048863;28;20056;-62
2023/10/10 11:37:23;;;;;;;24.52;19.27;;;;;;;;;;5049446;28;20198;-62
2023/10/10 11:40:19;;;;;;;27.85;18.98;;;;;;;;;;5049363;28;20550;-62
2023/10/10 11:42:47;;;;;;;26.40;18.85;;;;;;;;;;5050102;28;20140;-62
2023/10/10 11:45:19;;;;;;;25.88;17.92;;;;;;;;;;5048904;28;20049;-62
2023/10/10 11:47:46;;;;;;;25.70;18.98;;;;;;;;;;5065015;28;20075;-63
2023/10/10 11:50:13;;;;;;;23.90;17.10;;;;;;;;;;5063347;28;20153;-62
2023/10/10 11:52:54;;;;;;;30.50;18.95;;;;;;;;;;5049324;28;20114;-62
2023/10/10 11:55:29;;;;;;;23.30;18.40;;;;;;;;;;5049052;28;20044;-62
2023/10/10 11:58:06;;;;;;;23.25;17.98;;;;;;;;;;5048509;28;20045;-62
2023/10/10 12:01:06;;;;;;;28.55;18.75;;;;;;;;;;5048554;28;20389;-62
2023/10/10 12:06:18;;;;;;;22.05;17.38;;;;;;;;;;5060379;28;20063;-61
2023/10/10 12:08:46;;;;;;;24.52;19.33;;;;;;;;;;5058241;28;20452;-61
2023/10/10 12:11:12;;;;;;;24.40;18.48;;;;;;;;;;5049027;28;20142;-62
2023/10/10 12:13:38;;;;;;;24.15;17.75;;;;;;;;;;5048673;28;20139;-62
2023/10/10 12:16:10;;;;;;;24.17;18.33;;;;;;;;;;5048315;28;20047;-62
2023/10/10 12:18:43;;;;;;;26.37;18.13;;;;;;;;;;5047991;28;20099;-62
2023/10/10 12:21:10;;;;;;;24.77;18.33;;;;;;;;;;5067990;28;21045;-62
2023/10/10 12:23:36;;;;;;;23.63;17.13;;;;;;;;;;5068542;28;20106;-62
2023/10/10 12:26:03;;;;;;;21.30;15.27;;;;;;;;;;5067720;28;20106;-62
2023/10/10 12:28:29;;;;;;;22.27;16.55;;;;;;;;;;5049113;28;20045;-61
2023/10/10 12:30:56;;;;;;;19.10;15.38;;;;;;;;;;5047924;28;20499;-61
2023/10/10 12:33:23;;;;;;;23.00;14.27;;;;;;;;;;5048255;28;20055;-61
2023/10/10 12:35:50;;;;;;;16.27;12.13;;;;;;;;;;5048373;28;20461;-62
2023/10/10 12:38:23;;;;;;;15.95;12.68;;;;;;;;;;5048449;28;20126;-62
2023/10/10 12:40:53;;;;;;;18.23;12.40;;;;;;;;;;5048101;28;20095;-61
2023/10/10 12:43:19;;;;;;;17.02;12.50;;;;;;;;;;5047863;28;20094;-61
2023/10/10 12:45:46;;;;;;;19.27;13.00;;;;;;;;;;5048256;28;20049;-62
2023/10/10 12:48:20;;;;;;;16.70;11.18;;;;;;;;;;5048000;28;20044;-61
2023/10/10 12:50:47;;;;;;;20.23;12.27;;;;;;;;;;5048441;28;20099;-61
2023/10/10 12:53:19;;;;;;;17.15;11.88;;;;;;;;;;5048128;28;20041;-61
2023/10/10 12:55:52;;;;;;;21.10;12.47;;;;;;;;;;5048374;28;20049;-62
2023/10/10 12:58:23;;;;;;;20.60;13.93;;;;;;;;;;5048522;28;20287;-61
2023/10/10 13:00:53;;;;;;;20.30;12.98;;;;;;;;;;5054100;28;20071;-62
2023/10/10 13:03:37;;;;;;;22.52;13.63;;;;;;;;;;5068237;28;20490;-65
2023/10/10 13:06:04;;;;;;;20.73;12.45;;;;;;;;;;5068408;28;20044;-62
2023/10/10 13:08:48;;;;;;;19.05;11.90;;;;;;;;;;5067870;28;20049;-62
2023/10/10 13:11:19;;;;;;;20.20;13.20;;;;;;;;;;5051094;28;20099;-61
2023/10/10 13:13:51;;;;;;;16.10;12.63;;;;;;;;;;5047913;28;20053;-61
2023/10/10 13:16:25;;;;;;;16.95;12.45;;;;;;;;;;5048199;28;20144;-61
2023/10/10 13:18:55;;;;;;;21.27;12.90;;;;;;;;;;5047821;28;20067;-61
2023/10/10 13:21:22;;;;;;;20.08;12.85;;;;;;;;;;5047924;28;20091;-62
2023/10/10 13:23:49;;;;;;;22.77;12.95;;;;;;;;;;5047712;28;20053;-61
2023/10/10 13:26:16;;;;;;;19.80;13.63;;;;;;;;;;5056485;28;20086;-61
2023/10/10 13:28:44;;;;;;;20.63;13.43;;;;;;;;;;5067608;28;20041;-61
2023/10/10 13:31:13;;;;;;;17.73;13.10;;;;;;;;;;5067686;28;20144;-61
2023/10/10 13:33:40;;;;;;;22.23;13.20;;;;;;;;;;5060255;28;20495;-62
2023/10/10 13:36:09;;;;;;;19.33;12.53;;;;;;;;;;5057863;28;20106;-61
2023/10/10 13:38:35;;;;;;;18.67;13.20;;;;;;;;;;5065082;28;20140;-61
2023/10/10 13:41:02;;;;;;;18.97;13.40;;;;;;;;;;5066787;28;20045;-61
2023/10/10 13:43:28;;;;;;;16.73;12.57;;;;;;;;;;5067065;28;20558;-61
2023/10/10 13:45:57;;;;;;;21.40;13.03;;;;;;;;;;5062001;28;20499;-61
2023/10/10 13:48:24;;;;;;;21.30;13.60;;;;;;;;;;5063625;28;20049;-61
2023/10/10 13:50:56;;;;;;;18.93;13.43;;;;;;;;;;5065242;28;20491;-61
2023/10/10 13:53:22;;;;;;;23.55;13.60;;;;;;;;;;5051941;28;20068;-61
2023/10/10 13:55:49;;;;;;;21.03;13.80;;;;;;;;;;5058297;28;20505;-61
2023/10/10 13:58:16;;;;;;;21.23;14.50;;;;;;;;;;5070457;28;20664;-61
2023/10/10 14:00:55;;;;;;;17.50;12.67;;;;;;;;;;5058707;28;20048;-61
2023/10/10 14:03:37;;;;;;;19.63;13.70;;;;;;;;;;5061329;28;20086;-61
2023/10/10 14:06:12;;;;;;;21.33;13.97;;;;;;;;;;5064606;28;20044;-61
2023/10/10 14:08:43;;;;;;;25.90;13.07;;;;;;;;;;5055525;28;20081;-61
2023/10/10 14:11:09;;;;;;;20.70;12.97;;;;;;;;;;5065977;28;20056;-61
2023/10/10 14:13:35;;;;;;;18.00;12.67;;;;;;;;;;5051204;28;20049;-62
2023/10/10 14:16:02;;;;;;;18.63;11.87;;;;;;;;;;5050660;28;20478;-61
2023/10/10 14:18:29;;;;;;;19.87;12.43;;;;;;;;;;5053801;28;20072;-61
2023/10/10 14:20:56;;;;;;;19.93;12.43;;;;;;;;;;5053250;28;20120;-61
2023/10/10 14:23:25;;;;;;;17.23;11.00;;;;;;;;;;5053117;28;20169;-61
2023/10/10 14:25:52;;;;;;;16.67;11.80;;;;;;;;;;5070655;28;20044;-61
2023/10/10 14:28:18;;;;;;;17.87;12.43;;;;;;;;;;5070915;28;20491;-62
2023/10/10 14:30:48;;;;;;;20.73;11.13;;;;;;;;;;5070636;28;20432;-61
2023/10/10 14:33:14;;;;;;;15.30;11.10;;;;;;;;;;5070675;28;20044;-61
2023/10/10 14:35:41;;;;;;;20.70;11.63;;;;;;;;;;5066430;28;20064;-61
2023/10/10 14:38:07;;;;;;;18.10;11.07;;;;;;;;;;5064873;28;20052;-61
2023/10/10 14:40:34;;;;;;;17.33;10.50;;;;;;;;;;5070530;28;20044;-61
2023/10/10 14:43:06;;;;;;;15.30;10.30;;;;;;;;;;5070265;28;20465;-61
2023/10/10 14:45:33;;;;;;;14.60;10.27;;;;;;;;;;5070588;28;20044;-61
2023/10/10 14:47:59;;;;;;;15.83;10.07;;;;;;;;;;5070776;28;20048;-61
2023/10/10 14:50:25;;;;;;;17.77;10.30;;;;;;;;;;5070403;28;20106;-61
2023/10/10 14:52:52;;;;;;;14.97;10.73;;;;;;;;;;5069805;28;20487;-61
2023/10/10 14:55:23;;;;;;;15.27;10.63;;;;;;;;;;5069501;28;20456;-62
2023/10/10 14:57:54;;;;;;;15.17;10.03;;;;;;;;;;5050678;28;20087;-61
2023/10/10 15:00:21;;;;;;;15.33;9.67;;;;;;;;;;5053617;28;20037;-61
2023/10/10 15:02:47;;;;;;;16.07;11.50;;;;;;;;;;5058302;28;20056;-61
2023/10/10 15:05:14;;;;;;;18.83;10.80;;;;;;;;;;5059559;28;20049;-61
2023/10/10 15:07:41;;;;;;;18.97;10.90;;;;;;;;;;5064204;28;20051;-61
2023/10/10 15:10:08;;;;;;;19.83;10.30;;;;;;;;;;5068035;28;20105;-61
2023/10/10 15:12:34;;;;;;;18.30;11.00;;;;;;;;;;5056976;28;20037;-61
2023/10/10 15:15:00;;;;;;;18.20;10.23;;;;;;;;;;5057714;28;20499;-61
2023/10/10 15:17:30;;;;;;;16.43;11.10;;;;;;;;;;5068930;28;20046;-61
2023/10/10 15:19:56;;;;;;;18.10;11.83;;;;;;;;;;5069441;28;20076;-61
2023/10/10 15:22:22;;;;;;;17.20;11.50;;;;;;;;;;5068989;28;20044;-61
2023/10/10 15:24:52;;;;;;;16.97;11.00;;;;;;;;;;5067406;28;20463;-61
2023/10/10 15:27:19;;;;;;;23.10;12.40;;;;;;;;;;5069091;28;20084;-61
2023/10/10 15:29:45;;;;;;;19.50;11.70;;;;;;;;;;5069311;28;20048;-61
2023/10/10 15:32:13;;;;;;;21.80;11.80;;;;;;;;;;5068622;28;20052;-61
2023/10/10 15:34:39;;;;;;;16.37;11.17;;;;;;;;;;5069012;28;20080;-61
2023/10/10 15:37:14;;;;;;;17.83;11.23;;;;;;;;;;5059981;28;20067;-61
2023/10/10 15:39:41;;;;;;;15.70;10.67;;;;;;;;;;5049590;28;20049;-61
2023/10/10 15:42:08;;;;;;;20.93;11.70;;;;;;;;;;5064001;28;20059;-61
2023/10/10 15:44:34;;;;;;;17.00;11.73;;;;;;;;;;5065086;28;20636;-61
2023/10/10 15:47:02;;;;;;;18.77;11.40;;;;;;;;;;5052225;28;20040;-61
2023/10/10 15:49:28;;;;;;;15.87;11.27;;;;;;;;;;5066377;28;20838;-61
2023/10/10 15:51:56;;;;;;;22.70;11.47;;;;;;;;;;5063507;28;20041;-61
2023/10/10 15:54:28;;;;;;;23.00;11.73;;;;;;;;;;5051527;28;20041;-61
2023/10/10 15:56:54;;;;;;;18.52;11.68;;;;;;;;;;5066783;28;20055;-61
2023/10/10 15:59:20;;;;;;;19.60;11.90;;;;;;;;;;5066299;28;20514;-61
2023/10/10 16:01:47;;;;;;;16.27;11.47;;;;;;;;;;5056236;28;20047;-61
2023/10/10 16:04:13;;;;;;;16.07;11.47;;;;;;;;;;5068187;28;20146;-61
2023/10/10 16:06:46;;;;;;;21.27;11.73;;;;;;;;;;5065030;28;20094;-61
2023/10/10 16:09:20;;;;;;;;;;;;;;;;;;5068025;28;20052;-61
2023/10/10 16:11:52;;;;;;;15.48;11.68;;;;;;;;;;5068335;28;19946;-61
2023/10/10 16:14:19;;;;;;;17.67;12.23;;;;;;;;;;5066755;28;20047;-61
2023/10/10 16:16:46;;;;;;;20.53;12.00;;;;;;;;;;5068025;28;20090;-61
2023/10/10 16:19:20;;;;;;;19.00;11.97;;;;;;;;;;5068160;28;20044;-61
2023/10/10 16:21:46;;;;;;;17.83;11.77;;;;;;;;;;5067347;28;20071;-61
2023/10/10 16:24:15;;;;;;;23.27;12.10;;;;;;;;;;5068183;28;20098;-61
2023/10/10 16:26:44;;;;;;;21.97;13.07;;;;;;;;;;5067416;28;20470;-61
2023/10/10 16:29:19;;;;;;;18.83;11.70;;;;;;;;;;5067876;28;20063;-61
2023/10/10 16:31:45;;;;;;;18.93;11.53;;;;;;;;;;5062297;28;20048;-61
2023/10/10 16:34:11;;;;;;;19.93;11.43;;;;;;;;;;5055031;28;20517;-61
2023/10/10 16:36:38;;;;;;;16.43;11.43;;;;;;;;;;5067443;28;20498;-61
2023/10/10 16:39:10;;;;;;;21.90;12.50;;;;;;;;;;5066269;28;20080;-61
2023/10/10 16:41:36;;;;;;;19.47;11.47;;;;;;;;;;5056734;28;20514;-61
2023/10/10 16:44:03;;;;;;;17.37;12.03;;;;;;;;;;5061751;28;20041;-61
2023/10/10 16:46:31;;;;;;;17.90;11.40;;;;;;;;;;5059219;28;20041;-61
2023/10/10 16:48:57;;;;;;;19.23;11.13;;;;;;;;;;5051484;28;20133;-61
2023/10/10 16:51:26;;;;;;;21.87;12.47;;;;;;;;;;5068395;28;20040;-61
2023/10/10 16:53:53;;;;;;;18.77;11.07;;;;;;;;;;5067363;28;20044;-61
2023/10/10 16:56:22;;;;;;;20.93;12.20;;;;;;;;;;5057617;28;20407;-61
2023/10/10 16:58:49;;;;;;;16.17;11.27;;;;;;;;;;5067569;28;20122;-61
2023/10/10 17:01:16;;;;;;;23.87;12.23;;;;;;;;;;5066668;28;20123;-61
2023/10/10 17:03:45;;;;;;;18.90;11.77;;;;;;;;;;5067950;28;20044;-62
2023/10/10 17:06:12;;;;;;;20.17;10.93;;;;;;;;;;5068442;28;20063;-61
2023/10/10 17:08:38;;;;;;;16.83;10.57;;;;;;;;;;5056934;28;20037;-61
2023/10/10 17:11:09;;;;;;;19.93;10.57;;;;;;;;;;5048045;28;20060;-61
2023/10/10 17:13:38;;;;;;;21.10;11.97;;;;;;;;;;5047978;28;20166;-61
2023/10/10 17:16:15;;;;;;;19.27;11.93;;;;;;;;;;5048053;28;20048;-61
2023/10/10 17:18:42;;;;;;;21.53;11.80;;;;;;;;;;5047244;28;20127;-61
2023/10/10 17:21:09;;;;;;;17.83;11.87;;;;;;;;;;5048101;28;20044;-61
2023/10/10 17:23:35;;;;;;;19.70;12.23;;;;;;;;;;5047839;28;20041;-61
2023/10/10 17:26:04;;;;;;;20.07;11.77;;;;;;;;;;5047730;28;20049;-61
2023/10/10 17:28:30;;;;;;;20.40;11.93;;;;;;;;;;5047893;28;20388;-61
2023/10/10 17:30:58;;;;;;;21.50;11.73;;;;;;;;;;5050737;28;20036;-62